createdAt,value
2023-05-17T00:00:17.457Z,52.37
2023-05-17T00:01:17.354Z,52.47
2023-05-17T00:02:17.364Z,52.47
2023-05-17T00:03:17.349Z,52.19
2023-05-17T00:04:17.397Z,52.28
2023-05-17T00:05:17.350Z,52.67
2023-05-17T00:06:17.373Z,52.76
2023-05-17T00:07:17.353Z,52.57
2023-05-17T00:08:17.346Z,52.37
2023-05-17T00:09:17.354Z,52.57
2023-05-17T00:10:17.345Z,52.47
2023-05-17T00:11:17.346Z,52.57
2023-05-17T00:12:17.338Z,52.57
2023-05-17T00:13:17.345Z,52.47
2023-05-17T00:14:17.340Z,52.37
2023-05-17T00:15:17.341Z,52.67
2023-05-17T00:16:17.457Z,52.19
2023-05-17T00:17:17.351Z,52.28
2023-05-17T00:18:17.599Z,52.19
2023-05-17T00:19:17.387Z,52.47
2023-05-17T00:20:17.342Z,52.09
2023-05-17T00:21:17.349Z,52.76
2023-05-17T00:22:17.339Z,52.47
2023-05-17T00:23:17.339Z,52.37
2023-05-17T00:24:17.335Z,52.47
2023-05-17T00:25:17.342Z,52.37
2023-05-17T00:26:17.336Z,52.47
2023-05-17T00:27:17.336Z,52.57
2023-05-17T00:28:17.337Z,52.28
2023-05-17T00:29:17.336Z,52.57
2023-05-17T00:30:17.329Z,51.99
2023-05-17T00:31:17.344Z,52.09
2023-05-17T00:32:17.553Z,52.37
2023-05-17T00:33:17.351Z,52.19
2023-05-17T00:34:17.334Z,52.19
2023-05-17T00:35:17.410Z,52.19
2023-05-17T00:36:17.331Z,52.09
2023-05-17T00:37:17.340Z,52.19
2023-05-17T00:38:17.329Z,52.28
2023-05-17T00:39:17.334Z,52.57
2023-05-17T00:40:17.359Z,52.57
2023-05-17T00:41:17.332Z,52.67
2023-05-17T00:42:17.331Z,52.19
2023-05-17T00:43:17.324Z,52.57
2023-05-17T00:44:17.328Z,52.19
2023-05-17T00:45:17.335Z,52.37
2023-05-17T00:46:17.322Z,52.19
2023-05-17T00:47:17.343Z,52.28
2023-05-17T00:48:17.626Z,52.28
2023-05-17T00:49:17.332Z,52.37
2023-05-17T00:50:17.324Z,52.28
2023-05-17T00:51:17.322Z,52.57
2023-05-17T00:52:17.379Z,52.57
2023-05-17T00:53:17.324Z,52.95
2023-05-17T00:54:17.320Z,52.28
2023-05-17T00:55:17.328Z,52.57
2023-05-17T00:56:17.319Z,52.95
2023-05-17T00:57:17.326Z,52.47
2023-05-17T00:58:17.322Z,52.37
2023-05-17T00:59:17.335Z,52.57
2023-05-17T01:00:17.319Z,52.47
2023-05-17T01:01:17.326Z,52.57
2023-05-17T01:02:17.314Z,52.37
2023-05-17T01:03:17.410Z,52.28
2023-05-17T01:04:17.550Z,52.47
2023-05-17T01:05:17.327Z,52.09
2023-05-17T01:06:17.328Z,52.37
2023-05-17T01:07:17.325Z,52.37
2023-05-17T01:08:17.311Z,52.28
2023-05-17T01:09:17.325Z,52.37
2023-05-17T01:10:17.309Z,52.37
2023-05-17T01:11:17.312Z,52.86
2023-05-17T01:12:17.311Z,52.95
2023-05-17T01:13:17.314Z,52.37
2023-05-17T01:14:17.305Z,52.37
2023-05-17T01:15:17.309Z,52.37
2023-05-17T01:16:17.309Z,52.37
2023-05-17T01:17:17.393Z,52.28
2023-05-17T01:18:17.441Z,52.28
2023-05-17T01:19:17.396Z,52.28
2023-05-17T01:20:17.449Z,52.28
2023-05-17T01:21:17.305Z,52.47
2023-05-17T01:22:17.312Z,52.28
2023-05-17T01:23:17.308Z,52.57
2023-05-17T01:24:17.310Z,52.37
2023-05-17T01:25:17.303Z,52.37
2023-05-17T01:26:17.306Z,52.19
2023-05-17T01:27:17.296Z,52.19
2023-05-17T01:28:17.303Z,52.37
2023-05-17T01:29:17.302Z,52.47
2023-05-17T01:30:17.310Z,52.37
2023-05-17T01:31:17.297Z,52.47
2023-05-17T01:32:17.306Z,52.37
2023-05-17T01:33:17.365Z,52.47
2023-05-17T01:34:17.312Z,52.37
2023-05-17T01:35:17.304Z,52.19
2023-05-17T01:36:17.411Z,52.47
2023-05-17T01:37:17.290Z,52.47
2023-05-17T01:38:17.302Z,52.67
2023-05-17T01:39:17.294Z,52.37
2023-05-17T01:40:17.297Z,52.57
2023-05-17T01:41:17.294Z,52.28
2023-05-17T01:42:17.292Z,52.67
2023-05-17T01:43:17.295Z,52.28
2023-05-17T01:44:17.298Z,52.76
2023-05-17T01:45:17.288Z,52.37
2023-05-17T01:46:17.293Z,52.47
2023-05-17T01:47:17.307Z,52.47
2023-05-17T01:48:17.423Z,52.57
2023-05-17T01:49:17.304Z,52.28
2023-05-17T01:50:17.293Z,52.57
2023-05-17T01:51:17.286Z,52.47
2023-05-17T01:52:17.414Z,52.67
2023-05-17T01:53:17.287Z,52.47
2023-05-17T01:54:17.295Z,52.47
2023-05-17T01:55:17.283Z,52.47
2023-05-17T01:56:17.796Z,52.47
2023-05-17T01:57:17.283Z,52.47
2023-05-17T01:58:17.289Z,52.76
2023-05-17T01:59:17.281Z,52.67
2023-05-17T02:00:17.279Z,52.47
2023-05-17T02:01:17.279Z,52.76
2023-05-17T02:02:17.284Z,52.67
2023-05-17T02:03:17.335Z,52.67
2023-05-17T02:04:17.440Z,52.67
2023-05-17T02:05:17.485Z,52.67
2023-05-17T02:06:17.276Z,52.67
2023-05-17T02:07:17.277Z,52.47
2023-05-17T02:08:17.381Z,52.28
2023-05-17T02:09:17.300Z,51.70
2023-05-17T02:10:17.293Z,51.99
2023-05-17T02:11:17.275Z,52.09
2023-05-17T02:12:17.276Z,51.99
2023-05-17T02:13:17.281Z,52.76
2023-05-17T02:14:17.293Z,52.19
2023-05-17T02:15:17.272Z,51.99
2023-05-17T02:16:17.272Z,52.09
2023-05-17T02:17:17.280Z,51.89
2023-05-17T02:18:17.447Z,51.89
2023-05-17T02:19:17.359Z,51.80
2023-05-17T02:20:17.272Z,51.89
2023-05-17T02:21:17.270Z,51.80
2023-05-17T02:22:17.309Z,51.89
2023-05-17T02:23:17.280Z,52.19
2023-05-17T02:24:17.374Z,51.89
2023-05-17T02:25:17.283Z,51.89
2023-05-17T02:26:17.272Z,51.80
2023-05-17T02:27:17.268Z,52.09
2023-05-17T02:28:17.293Z,52.76
2023-05-17T02:29:17.279Z,52.09
2023-05-17T02:30:18.297Z,51.80
2023-05-17T02:31:17.263Z,51.80
2023-05-17T02:32:17.269Z,51.89
2023-05-17T02:33:17.348Z,52.09
2023-05-17T02:34:17.280Z,51.80
2023-05-17T02:35:17.257Z,52.28
2023-05-17T02:36:17.272Z,52.09
2023-05-17T02:37:17.261Z,51.89
2023-05-17T02:38:17.263Z,52.09
2023-05-17T02:39:17.266Z,51.99
2023-05-17T02:40:17.459Z,51.89
2023-05-17T02:41:17.262Z,51.89
2023-05-17T02:42:17.263Z,51.99
2023-05-17T02:43:17.257Z,52.09
2023-05-17T02:44:17.263Z,52.19
2023-05-17T02:45:17.253Z,51.99
2023-05-17T02:46:17.257Z,52.37
2023-05-17T02:47:17.297Z,52.19
2023-05-17T02:48:17.270Z,52.19
2023-05-17T02:49:17.255Z,52.19
2023-05-17T02:50:17.268Z,52.19
2023-05-17T02:51:17.248Z,52.09
2023-05-17T02:52:17.257Z,51.89
2023-05-17T02:53:17.252Z,52.09
2023-05-17T02:54:17.251Z,52.19
2023-05-17T02:55:17.245Z,52.09
2023-05-17T02:56:17.426Z,52.09
2023-05-17T02:57:17.254Z,51.99
2023-05-17T02:58:17.254Z,52.09
2023-05-17T02:59:17.245Z,52.37
2023-05-17T03:00:17.257Z,52.09
2023-05-17T03:01:17.270Z,51.89
2023-05-17T03:02:17.423Z,51.89
2023-05-17T03:03:17.382Z,51.99
2023-05-17T03:04:17.260Z,51.99
2023-05-17T03:05:17.246Z,52.19
2023-05-17T03:06:17.262Z,51.61
2023-05-17T03:07:17.241Z,51.99
2023-05-17T03:08:17.418Z,51.89
2023-05-17T03:09:17.238Z,51.89
2023-05-17T03:10:17.240Z,52.09
2023-05-17T03:11:17.260Z,52.09
2023-05-17T03:12:17.360Z,51.61
2023-05-17T03:13:17.295Z,51.41
2023-05-17T03:14:17.235Z,51.70
2023-05-17T03:15:17.244Z,51.99
2023-05-17T03:16:17.247Z,51.89
2023-05-17T03:17:17.240Z,51.70
2023-05-17T03:18:17.413Z,51.41
2023-05-17T03:19:17.286Z,51.61
2023-05-17T03:20:17.234Z,51.70
2023-05-17T03:21:17.238Z,51.70
2023-05-17T03:22:17.243Z,51.61
2023-05-17T03:23:17.538Z,51.61
2023-05-17T03:24:17.282Z,51.89
2023-05-17T03:25:17.230Z,51.89
2023-05-17T03:26:17.229Z,51.51
2023-05-17T03:27:17.311Z,51.41
2023-05-17T03:28:17.323Z,51.80
2023-05-17T03:29:17.226Z,51.89
2023-05-17T03:30:17.239Z,51.89
2023-05-17T03:31:17.225Z,51.61
2023-05-17T03:32:17.226Z,51.80
2023-05-17T03:33:17.567Z,51.41
2023-05-17T03:34:17.232Z,51.80
2023-05-17T03:35:17.223Z,51.61
2023-05-17T03:36:17.303Z,51.61
2023-05-17T03:37:17.224Z,51.51
2023-05-17T03:38:17.228Z,51.80
2023-05-17T03:39:17.245Z,51.80
2023-05-17T03:40:17.218Z,51.80
2023-05-17T03:41:17.221Z,51.80
2023-05-17T03:42:17.226Z,51.61
2023-05-17T03:43:17.271Z,51.70
2023-05-17T03:44:17.314Z,51.51
2023-05-17T03:45:17.220Z,51.70
2023-05-17T03:46:17.221Z,51.41
2023-05-17T03:47:17.217Z,51.51
2023-05-17T03:48:17.459Z,51.70
2023-05-17T03:49:17.409Z,51.41
2023-05-17T03:50:17.210Z,51.99
2023-05-17T03:51:17.223Z,51.89
2023-05-17T03:52:17.211Z,51.70
2023-05-17T03:53:17.206Z,52.09
2023-05-17T03:54:17.217Z,51.99
2023-05-17T03:55:17.209Z,51.99
2023-05-17T03:56:17.214Z,52.09
2023-05-17T03:57:17.214Z,52.67
2023-05-17T03:58:17.214Z,52.57
2023-05-17T03:59:17.363Z,52.67
2023-05-17T04:00:17.326Z,52.57
2023-05-17T04:01:17.208Z,52.95
2023-05-17T04:02:17.207Z,52.86
2023-05-17T04:03:19.862Z,52.67
2023-05-17T04:04:17.248Z,52.57
2023-05-17T04:05:17.277Z,52.86
2023-05-17T04:06:17.206Z,52.95
2023-05-17T04:07:17.209Z,52.67
2023-05-17T04:08:17.223Z,52.57
2023-05-17T04:09:17.214Z,52.86
2023-05-17T04:10:17.206Z,52.67
2023-05-17T04:11:17.205Z,52.95
2023-05-17T04:12:17.205Z,53.15
2023-05-17T04:13:17.201Z,53.05
2023-05-17T04:14:17.206Z,52.86
2023-05-17T04:15:17.204Z,52.86
2023-05-17T04:16:17.357Z,53.05
2023-05-17T04:17:17.204Z,52.95
2023-05-17T04:18:17.264Z,53.05
2023-05-17T04:19:17.410Z,52.76
2023-05-17T04:20:17.216Z,52.86
2023-05-17T04:21:17.201Z,52.76
2023-05-17T04:22:17.212Z,52.86
2023-05-17T04:23:17.201Z,52.95
2023-05-17T04:24:17.206Z,53.05
2023-05-17T04:25:17.205Z,52.95
2023-05-17T04:26:17.208Z,53.05
2023-05-17T04:27:17.196Z,53.25
2023-05-17T04:28:17.193Z,52.67
2023-05-17T04:29:17.190Z,52.57
2023-05-17T04:30:17.186Z,52.57
2023-05-17T04:31:17.191Z,52.95
2023-05-17T04:32:17.349Z,52.67
2023-05-17T04:33:17.286Z,53.15
2023-05-17T04:34:17.256Z,53.15
2023-05-17T04:35:17.190Z,53.05
2023-05-17T04:36:17.195Z,52.67
2023-05-17T04:37:17.192Z,52.86
2023-05-17T04:38:17.196Z,53.53
2023-05-17T04:39:17.187Z,53.34
2023-05-17T04:40:17.185Z,53.25
2023-05-17T04:41:17.185Z,53.25
2023-05-17T04:42:17.205Z,53.15
2023-05-17T04:43:17.180Z,53.25
2023-05-17T04:44:17.226Z,53.44
2023-05-17T04:45:17.183Z,53.34
2023-05-17T04:46:17.184Z,53.25
2023-05-17T04:47:17.182Z,53.25
2023-05-17T04:48:17.418Z,53.05
2023-05-17T04:49:17.185Z,52.95
2023-05-17T04:50:17.184Z,53.05
2023-05-17T04:51:17.203Z,53.25
2023-05-17T04:52:17.180Z,53.34
2023-05-17T04:53:17.198Z,53.15
2023-05-17T04:54:17.177Z,53.05
2023-05-17T04:55:17.203Z,53.17
2023-05-17T04:56:17.170Z,53.73
2023-05-17T04:57:17.188Z,52.47
2023-05-17T04:58:17.176Z,52.25
2023-05-17T04:59:17.189Z,52.95
2023-05-17T05:00:17.187Z,53.63
2023-05-17T05:01:17.179Z,53.15
2023-05-17T05:02:17.177Z,53.05
2023-05-17T05:03:17.259Z,53.25
2023-05-17T05:04:17.422Z,53.73
2023-05-17T05:05:17.163Z,53.73
2023-05-17T05:06:17.169Z,53.34
2023-05-17T05:07:17.166Z,53.34
2023-05-17T05:08:17.186Z,53.53
2023-05-17T05:09:17.166Z,53.63
2023-05-17T05:10:17.178Z,53.83
2023-05-17T05:11:17.162Z,53.73
2023-05-17T05:12:17.163Z,53.34
2023-05-17T05:13:17.159Z,53.53
2023-05-17T05:14:17.159Z,53.73
2023-05-17T05:15:17.164Z,53.63
2023-05-17T05:16:17.164Z,53.53
2023-05-17T05:17:17.215Z,53.63
2023-05-17T05:18:17.278Z,53.15
2023-05-17T05:19:17.310Z,53.25
2023-05-17T05:20:17.266Z,52.95
2023-05-17T05:21:17.170Z,53.15
2023-05-17T05:22:17.165Z,52.95
2023-05-17T05:23:17.152Z,53.25
2023-05-17T05:24:17.156Z,53.25
2023-05-17T05:25:17.155Z,53.25
2023-05-17T05:26:17.153Z,53.25
2023-05-17T05:27:17.150Z,52.95
2023-05-17T05:28:17.157Z,53.05
2023-05-17T05:29:17.150Z,53.15
2023-05-17T05:30:17.150Z,52.95
2023-05-17T05:31:17.149Z,53.25
2023-05-17T05:32:17.198Z,53.25
2023-05-17T05:33:17.258Z,53.15
2023-05-17T05:34:17.163Z,53.53
2023-05-17T05:35:17.150Z,53.25
2023-05-17T05:36:17.170Z,53.05
2023-05-17T05:37:18.678Z,53.25
2023-05-17T05:38:17.149Z,53.25
2023-05-17T05:39:17.173Z,53.25
2023-05-17T05:40:17.138Z,53.15
2023-05-17T05:41:17.152Z,53.34
2023-05-17T05:42:17.143Z,52.95
2023-05-17T05:43:17.144Z,53.25
2023-05-17T05:44:17.170Z,53.25
2023-05-17T05:45:17.151Z,53.15
2023-05-17T05:46:17.145Z,53.25
2023-05-17T05:47:17.151Z,53.15
2023-05-17T05:48:17.280Z,53.34
2023-05-17T05:49:17.141Z,53.25
2023-05-17T05:50:17.142Z,53.25
2023-05-17T05:51:17.142Z,53.25
2023-05-17T05:52:17.231Z,53.25
2023-05-17T05:53:19.523Z,52.95
2023-05-17T05:54:17.148Z,52.76
2023-05-17T05:55:17.142Z,53.25
2023-05-17T05:56:17.138Z,53.25
2023-05-17T05:57:17.137Z,53.15
2023-05-17T05:58:17.150Z,53.15
2023-05-17T05:59:17.138Z,53.25
2023-05-17T06:00:17.138Z,53.53
2023-05-17T06:01:17.133Z,53.15
2023-05-17T06:02:17.142Z,53.15
2023-05-17T06:03:17.144Z,52.86
2023-05-17T06:04:17.134Z,53.25
2023-05-17T06:05:17.156Z,53.25
2023-05-17T06:06:17.223Z,53.05
2023-05-17T06:07:17.136Z,53.25
2023-05-17T06:08:17.301Z,53.25
2023-05-17T06:09:17.134Z,53.15
2023-05-17T06:10:17.132Z,53.15
2023-05-17T06:11:17.131Z,53.63
2023-05-17T06:12:17.130Z,53.73
2023-05-17T06:13:17.186Z,53.63
2023-05-17T06:14:17.130Z,53.73
2023-05-17T06:15:17.135Z,53.05
2023-05-17T06:16:17.134Z,53.15
2023-05-17T06:17:17.128Z,52.95
2023-05-17T06:18:17.207Z,53.63
2023-05-17T06:19:17.202Z,54.21
2023-05-17T06:20:17.124Z,54.50
2023-05-17T06:21:17.144Z,54.88
2023-05-17T06:22:17.129Z,54.98
2023-05-17T06:23:17.418Z,54.98
2023-05-17T06:24:17.260Z,55.08
2023-05-17T06:25:17.123Z,55.18
2023-05-17T06:26:17.123Z,54.40
2023-05-17T06:27:17.122Z,54.98
2023-05-17T06:28:17.118Z,55.20
2023-05-17T06:29:17.119Z,55.49
2023-05-17T06:30:17.114Z,55.01
2023-05-17T06:31:18.160Z,55.18
2023-05-17T06:32:17.121Z,55.30
2023-05-17T06:33:17.188Z,55.18
2023-05-17T06:34:17.117Z,55.56
2023-05-17T06:35:17.114Z,55.27
2023-05-17T06:36:17.117Z,54.69
2023-05-17T06:37:17.114Z,54.88
2023-05-17T06:38:17.127Z,54.79
2023-05-17T06:39:17.112Z,54.69
2023-05-17T06:40:17.418Z,54.40
2023-05-17T06:41:17.116Z,54.31
2023-05-17T06:42:17.112Z,54.40
2023-05-17T06:43:17.114Z,54.33
2023-05-17T06:44:17.108Z,54.31
2023-05-17T06:45:17.109Z,53.83
2023-05-17T06:46:17.111Z,53.83
2023-05-17T06:47:17.155Z,54.14
2023-05-17T06:48:17.215Z,53.63
2023-05-17T06:49:17.252Z,53.83
2023-05-17T06:50:17.103Z,53.95
2023-05-17T06:51:17.104Z,53.83
2023-05-17T06:52:17.098Z,54.11
2023-05-17T06:53:17.123Z,53.92
2023-05-17T06:54:17.092Z,53.63
2023-05-17T06:55:17.105Z,53.34
2023-05-17T06:56:17.306Z,53.63
2023-05-17T06:57:17.106Z,53.73
2023-05-17T06:58:17.096Z,53.05
2023-05-17T06:59:17.095Z,53.15
2023-05-17T07:00:17.104Z,53.15
2023-05-17T07:01:17.125Z,53.25
2023-05-17T07:02:17.104Z,53.15
2023-05-17T07:03:17.159Z,53.34
2023-05-17T07:04:17.186Z,53.17
2023-05-17T07:05:17.140Z,53.27
2023-05-17T07:06:17.103Z,53.25
2023-05-17T07:07:17.094Z,53.08
2023-05-17T07:08:17.298Z,53.05
2023-05-17T07:09:17.095Z,52.86
2023-05-17T07:10:17.087Z,52.86
2023-05-17T07:11:17.093Z,52.98
2023-05-17T07:12:17.250Z,52.28
2023-05-17T07:13:17.089Z,52.57
2023-05-17T07:14:17.085Z,52.69
2023-05-17T07:15:17.086Z,52.67
2023-05-17T07:16:17.087Z,52.98
2023-05-17T07:17:17.115Z,52.50
2023-05-17T07:18:17.176Z,52.28
2023-05-17T07:19:17.275Z,52.31
2023-05-17T07:20:17.150Z,52.69
2023-05-17T07:21:17.090Z,52.31
2023-05-17T07:22:17.083Z,52.01
2023-05-17T07:23:17.285Z,52.69
2023-05-17T07:24:17.085Z,52.50
2023-05-17T07:25:17.089Z,52.11
2023-05-17T07:26:17.085Z,52.31
2023-05-17T07:27:17.077Z,52.59
2023-05-17T07:28:17.176Z,51.82
2023-05-17T07:29:17.091Z,52.11
2023-05-17T07:30:17.082Z,51.89
2023-05-17T07:31:17.080Z,52.01
2023-05-17T07:32:17.079Z,52.01
2023-05-17T07:33:17.078Z,52.01
2023-05-17T07:34:17.159Z,51.89
2023-05-17T07:35:18.209Z,52.28
2023-05-17T07:36:17.163Z,51.92
2023-05-17T07:37:17.075Z,52.09
2023-05-17T07:38:17.076Z,52.11
2023-05-17T07:39:17.264Z,51.99
2023-05-17T07:40:17.080Z,52.01
2023-05-17T07:41:17.135Z,51.82
2023-05-17T07:42:17.087Z,52.11
2023-05-17T07:43:17.079Z,51.82
2023-05-17T07:44:17.193Z,52.31
2023-05-17T07:45:17.078Z,52.19
2023-05-17T07:46:17.075Z,51.63
2023-05-17T07:47:17.156Z,51.63
2023-05-17T07:48:17.154Z,51.92
2023-05-17T07:49:17.093Z,51.53
2023-05-17T07:50:17.069Z,52.11
2023-05-17T07:51:17.077Z,51.44
2023-05-17T07:52:17.078Z,51.44
2023-05-17T07:53:17.072Z,51.53
2023-05-17T07:54:17.076Z,51.70
2023-05-17T07:55:17.311Z,51.51
2023-05-17T07:56:17.066Z,51.92
2023-05-17T07:57:17.066Z,51.73
2023-05-17T07:58:17.060Z,51.73
2023-05-17T07:59:17.069Z,51.70
2023-05-17T08:00:17.144Z,51.34
2023-05-17T08:01:17.071Z,51.15
2023-05-17T08:02:17.062Z,51.15
2023-05-17T08:03:17.566Z,51.22
2023-05-17T08:04:17.077Z,51.15
2023-05-17T08:05:17.066Z,51.44
2023-05-17T08:06:17.099Z,51.53
2023-05-17T08:07:17.059Z,51.34
2023-05-17T08:08:17.062Z,51.34
2023-05-17T08:09:17.056Z,51.15
2023-05-17T08:10:17.073Z,50.93
2023-05-17T08:11:17.060Z,51.34
2023-05-17T08:12:17.087Z,50.96
2023-05-17T08:13:17.096Z,51.15
2023-05-17T08:14:17.062Z,50.96
2023-05-17T08:15:17.108Z,51.05
2023-05-17T08:16:17.432Z,50.76
2023-05-17T08:17:17.052Z,50.96
2023-05-17T08:18:17.213Z,50.67
2023-05-17T08:19:17.158Z,50.76
2023-05-17T08:20:17.055Z,50.57
2023-05-17T08:21:17.054Z,50.28
2023-05-17T08:22:17.057Z,50.38
2023-05-17T08:23:17.050Z,50.47
2023-05-17T08:24:17.049Z,50.57
2023-05-17T08:25:17.055Z,50.47
2023-05-17T08:26:17.049Z,50.09
2023-05-17T08:27:17.057Z,50.09
2023-05-17T08:28:17.250Z,50.09
2023-05-17T08:29:17.051Z,49.99
2023-05-17T08:30:28.178Z,49.99
2023-05-17T08:31:17.039Z,49.90
2023-05-17T08:32:17.273Z,49.90
2023-05-17T08:33:17.151Z,50.18
2023-05-17T08:34:17.125Z,49.90
2023-05-17T08:35:17.046Z,49.60
2023-05-17T08:36:17.079Z,50.18
2023-05-17T08:37:17.062Z,50.09
2023-05-17T08:38:19.272Z,50.09
2023-05-17T08:39:17.039Z,50.09
2023-05-17T08:40:17.200Z,50.09
2023-05-17T08:41:17.044Z,50.18
2023-05-17T08:42:17.035Z,49.99
2023-05-17T08:43:17.035Z,50.18
2023-05-17T08:44:17.034Z,50.18
2023-05-17T08:45:17.051Z,49.90
2023-05-17T08:46:17.042Z,49.60
2023-05-17T08:47:17.049Z,49.80
2023-05-17T08:48:17.129Z,50.18
2023-05-17T08:49:17.141Z,49.90
2023-05-17T08:50:17.092Z,49.41
2023-05-17T08:51:17.034Z,49.80
2023-05-17T08:52:17.042Z,49.60
2023-05-17T08:53:17.052Z,49.32
2023-05-17T08:54:17.030Z,49.22
2023-05-17T08:55:17.027Z,49.32
2023-05-17T08:56:17.024Z,49.41
2023-05-17T08:57:17.029Z,49.32
2023-05-17T08:58:17.034Z,49.15
2023-05-17T08:59:17.024Z,49.34
2023-05-17T09:00:17.042Z,48.86
2023-05-17T09:01:17.031Z,49.41
2023-05-17T09:02:17.053Z,49.32
2023-05-17T09:03:17.136Z,49.32
2023-05-17T09:04:17.072Z,49.41
2023-05-17T09:05:17.050Z,49.41
2023-05-17T09:06:17.051Z,49.32
2023-05-17T09:07:17.418Z,49.41
2023-05-17T09:08:17.022Z,49.51
2023-05-17T09:09:17.023Z,49.41
2023-05-17T09:10:17.047Z,49.12
2023-05-17T09:11:17.019Z,49.41
2023-05-17T09:12:17.017Z,48.74
2023-05-17T09:13:17.022Z,49.51
2023-05-17T09:14:17.021Z,49.02
2023-05-17T09:15:17.019Z,48.83
2023-05-17T09:16:17.020Z,48.95
2023-05-17T09:17:17.016Z,48.95
2023-05-17T09:18:19.403Z,48.83
2023-05-17T09:19:17.360Z,48.95
2023-05-17T09:20:17.077Z,48.76
2023-05-17T09:21:17.013Z,48.95
2023-05-17T09:22:17.014Z,49.05
2023-05-17T09:23:17.013Z,48.76
2023-05-17T09:24:17.016Z,48.95
2023-05-17T09:25:17.331Z,49.53
2023-05-17T09:26:17.009Z,48.57
2023-05-17T09:27:17.031Z,48.86
2023-05-17T09:28:17.012Z,48.76
2023-05-17T09:29:17.010Z,48.76
2023-05-17T09:30:17.010Z,48.86
2023-05-17T09:31:17.016Z,48.76
2023-05-17T09:32:17.013Z,48.37
2023-05-17T09:33:18.756Z,48.76
2023-05-17T09:34:17.008Z,48.86
2023-05-17T09:35:17.017Z,48.28
2023-05-17T09:36:17.029Z,48.37
2023-05-17T09:37:17.015Z,48.18
2023-05-17T09:38:17.005Z,48.66
2023-05-17T09:39:17.006Z,48.18
2023-05-17T09:40:17.007Z,48.37
2023-05-17T09:41:17.009Z,48.28
2023-05-17T09:42:17.160Z,48.18
2023-05-17T09:43:17.009Z,48.47
2023-05-17T09:44:17.161Z,48.37
2023-05-17T09:45:17.008Z,48.28
2023-05-17T09:46:17.006Z,48.08
2023-05-17T09:47:17.009Z,48.08
2023-05-17T09:48:17.170Z,48.18
2023-05-17T09:49:17.008Z,48.37
2023-05-17T09:50:17.005Z,48.47
2023-05-17T09:51:16.997Z,48.28
2023-05-17T09:52:17.036Z,47.99
2023-05-17T09:53:17.008Z,48.37
2023-05-17T09:54:17.004Z,48.37
2023-05-17T09:55:16.997Z,48.28
2023-05-17T09:56:17.005Z,47.89
2023-05-17T09:57:17.015Z,47.60
2023-05-17T09:58:17.002Z,47.99
2023-05-17T09:59:17.098Z,47.60
2023-05-17T10:00:16.997Z,47.31
2023-05-17T10:01:17.000Z,47.89
2023-05-17T10:02:17.000Z,47.99
2023-05-17T10:03:17.108Z,47.89
2023-05-17T10:04:17.019Z,47.70
2023-05-17T10:05:17.049Z,47.31
2023-05-17T10:06:32.590Z,47.31
2023-05-17T10:07:17.000Z,47.50
2023-05-17T10:08:17.070Z,46.92
2023-05-17T10:09:17.067Z,47.02
2023-05-17T10:10:16.996Z,47.02
2023-05-17T10:11:16.997Z,46.92
2023-05-17T10:12:16.999Z,46.83
2023-05-17T10:13:16.992Z,46.92
2023-05-17T10:14:16.994Z,46.73
2023-05-17T10:15:17.043Z,46.54
2023-05-17T10:16:17.046Z,46.44
2023-05-17T10:17:16.992Z,46.44
2023-05-17T10:18:17.119Z,46.92
2023-05-17T10:19:17.093Z,46.92
2023-05-17T10:20:17.115Z,46.83
2023-05-17T10:21:16.997Z,46.73
2023-05-17T10:22:23.156Z,46.83
2023-05-17T10:23:16.990Z,47.12
2023-05-17T10:24:17.051Z,46.73
2023-05-17T10:25:16.988Z,47.12
2023-05-17T10:26:17.018Z,47.02
2023-05-17T10:27:16.991Z,47.02
2023-05-17T10:28:16.986Z,47.02
2023-05-17T10:29:17.002Z,46.92
2023-05-17T10:30:17.025Z,47.31
2023-05-17T10:31:16.992Z,47.02
2023-05-17T10:32:17.057Z,46.83
2023-05-17T10:33:17.146Z,46.83
2023-05-17T10:34:17.010Z,47.02
2023-05-17T10:35:16.988Z,47.12
2023-05-17T10:36:17.303Z,46.73
2023-05-17T10:37:16.985Z,47.02
2023-05-17T10:38:16.986Z,47.00
2023-05-17T10:39:16.980Z,46.90
2023-05-17T10:40:17.093Z,47.02
2023-05-17T10:41:16.981Z,46.73
2023-05-17T10:42:16.983Z,46.92
2023-05-17T10:43:16.989Z,46.81
2023-05-17T10:44:16.981Z,47.12
2023-05-17T10:45:16.996Z,47.02
2023-05-17T10:46:17.005Z,46.90
2023-05-17T10:47:16.988Z,46.92
2023-05-17T10:48:17.122Z,46.42
2023-05-17T10:49:17.197Z,46.54
2023-05-17T10:50:17.022Z,46.73
2023-05-17T10:51:16.972Z,46.64
2023-05-17T10:52:16.987Z,46.73
2023-05-17T10:53:16.980Z,46.54
2023-05-17T10:54:16.975Z,46.64
2023-05-17T10:55:16.972Z,46.83
2023-05-17T10:56:17.000Z,46.44
2023-05-17T10:57:16.997Z,46.73
2023-05-17T10:58:16.980Z,46.34
2023-05-17T10:59:16.988Z,46.06
2023-05-17T11:00:17.005Z,46.25
2023-05-17T11:01:16.977Z,46.15
2023-05-17T11:02:16.969Z,46.15
2023-05-17T11:03:17.022Z,46.06
2023-05-17T11:04:17.025Z,45.86
2023-05-17T11:05:17.024Z,45.67
2023-05-17T11:06:24.457Z,46.25
2023-05-17T11:07:17.004Z,45.57
2023-05-17T11:08:16.985Z,45.57
2023-05-17T11:09:16.980Z,45.57
2023-05-17T11:10:17.036Z,45.86
2023-05-17T11:11:16.969Z,45.67
2023-05-17T11:12:16.994Z,45.86
2023-05-17T11:13:16.971Z,45.57
2023-05-17T11:14:16.967Z,46.06
2023-05-17T11:15:16.968Z,46.06
2023-05-17T11:16:18.136Z,45.67
2023-05-17T11:17:16.962Z,45.57
2023-05-17T11:18:26.606Z,45.18
2023-05-17T11:19:17.040Z,45.38
2023-05-17T11:20:17.427Z,45.28
2023-05-17T11:21:16.967Z,45.57
2023-05-17T11:22:16.970Z,45.28
2023-05-17T11:23:16.960Z,45.28
2023-05-17T11:24:16.973Z,45.76
2023-05-17T11:25:16.963Z,45.38
2023-05-17T11:26:16.971Z,45.57
2023-05-17T11:27:16.965Z,45.67
2023-05-17T11:28:16.997Z,45.48
2023-05-17T11:29:16.966Z,45.38
2023-05-17T11:30:16.970Z,45.57
2023-05-17T11:31:16.961Z,45.57
2023-05-17T11:32:16.966Z,45.38
2023-05-17T11:33:32.400Z,45.57
2023-05-17T11:34:16.975Z,45.48
2023-05-17T11:35:16.960Z,45.57
2023-05-17T11:36:16.960Z,45.67
2023-05-17T11:37:16.960Z,45.57
2023-05-17T11:38:16.959Z,45.48
2023-05-17T11:39:16.956Z,45.48
2023-05-17T11:40:16.971Z,45.57
2023-05-17T11:41:26.053Z,45.57
2023-05-17T11:42:16.978Z,45.65
2023-05-17T11:43:16.955Z,45.86
2023-05-17T11:44:16.989Z,45.96
2023-05-17T11:45:16.957Z,46.06
2023-05-17T11:46:16.955Z,45.84
2023-05-17T11:47:16.988Z,45.45
2023-05-17T11:48:17.033Z,45.57
2023-05-17T11:49:26.969Z,45.57
2023-05-17T11:50:16.961Z,45.48
2023-05-17T11:51:16.980Z,45.67
2023-05-17T11:52:16.958Z,45.86
2023-05-17T11:53:16.960Z,45.38
2023-05-17T11:54:16.952Z,45.18
2023-05-17T11:55:16.964Z,45.48
2023-05-17T11:56:16.954Z,45.48
2023-05-17T11:57:17.000Z,45.38
2023-05-17T11:58:16.959Z,45.57
2023-05-17T11:59:16.949Z,45.28
2023-05-17T12:00:16.977Z,45.48
2023-05-17T12:01:16.951Z,45.38
2023-05-17T12:02:16.945Z,45.67
2023-05-17T12:03:16.945Z,45.67
2023-05-17T12:04:16.963Z,45.57
2023-05-17T12:05:16.948Z,45.76
2023-05-17T12:06:16.975Z,45.57
2023-05-17T12:07:17.000Z,45.67
2023-05-17T12:08:16.946Z,45.86
2023-05-17T12:09:16.944Z,45.86
2023-05-17T12:10:16.953Z,45.55
2023-05-17T12:11:16.957Z,45.57
2023-05-17T12:12:16.947Z,45.57
2023-05-17T12:13:16.941Z,46.06
2023-05-17T12:14:16.945Z,45.38
2023-05-17T12:15:16.949Z,45.75
2023-05-17T12:16:18.336Z,45.67
2023-05-17T12:17:16.992Z,45.38
2023-05-17T12:18:17.005Z,45.94
2023-05-17T12:19:17.083Z,45.67
2023-05-17T12:20:17.133Z,45.45
2023-05-17T12:21:16.943Z,45.57
2023-05-17T12:22:16.943Z,45.67
2023-05-17T12:23:16.942Z,45.67
2023-05-17T12:24:16.990Z,45.76
2023-05-17T12:25:16.941Z,45.48
2023-05-17T12:26:16.951Z,45.18
2023-05-17T12:27:16.941Z,45.38
2023-05-17T12:28:16.935Z,45.48
2023-05-17T12:29:16.946Z,45.55
2023-05-17T12:30:16.934Z,45.38
2023-05-17T12:31:16.937Z,45.38
2023-05-17T12:32:16.980Z,45.18
2023-05-17T12:33:17.001Z,45.28
2023-05-17T12:34:17.030Z,45.76
2023-05-17T12:35:16.926Z,45.28
2023-05-17T12:36:16.937Z,45.65
2023-05-17T12:37:17.101Z,45.26
2023-05-17T12:38:16.930Z,45.17
2023-05-17T12:39:16.932Z,45.09
2023-05-17T12:40:16.935Z,45.28
2023-05-17T12:41:16.925Z,45.67
2023-05-17T12:42:16.923Z,45.38
2023-05-17T12:43:16.996Z,45.67
2023-05-17T12:44:17.066Z,45.26
2023-05-17T12:45:16.927Z,45.76
2023-05-17T12:46:16.938Z,45.57
2023-05-17T12:47:16.986Z,45.28
2023-05-17T12:48:17.144Z,45.18
2023-05-17T12:49:17.065Z,45.18
2023-05-17T12:50:16.922Z,45.26
2023-05-17T12:51:16.915Z,45.36
2023-05-17T12:52:17.105Z,45.28